createdAt,value
2022-08-10T00:00:23.366Z,42.16
2022-08-10T00:03:28.268Z,41.91
2022-08-10T00:06:56.504Z,42.13
2022-08-10T00:09:50.644Z,42.12
2022-08-10T00:12:22.071Z,42.22
2022-08-10T00:15:51.852Z,42.32
2022-08-10T00:19:23.460Z,42.72
2022-08-10T00:22:04.159Z,42.66
2022-08-10T00:25:15.449Z,43.38
2022-08-10T00:28:30.422Z,43.45
2022-08-10T00:31:31.165Z,43.63
2022-08-10T00:34:44.492Z,43.45
2022-08-10T00:37:23.634Z,43.56
2022-08-10T00:39:51.445Z,43.41
2022-08-10T00:42:18.783Z,43.25
2022-08-10T00:44:48.971Z,43.46
2022-08-10T00:47:36.154Z,43.54
2022-08-10T00:50:05.353Z,43.30
2022-08-10T00:52:33.473Z,43.00
2022-08-10T00:55:02.922Z,44.37
2022-08-10T00:57:30.610Z,43.80
2022-08-10T01:00:00.369Z,43.85
2022-08-10T01:02:29.252Z,43.58
2022-08-10T01:05:01.638Z,43.44
2022-08-10T01:07:53.838Z,43.55
2022-08-10T01:10:33.614Z,44.13
2022-08-10T01:13:17.292Z,44.38
2022-08-10T01:16:06.735Z,44.07
2022-08-10T01:18:40.459Z,44.11
2022-08-10T01:21:23.895Z,43.93
2022-08-10T01:24:13.774Z,44.39
2022-08-10T01:26:47.026Z,44.10
2022-08-10T01:29:39.102Z,43.63
2022-08-10T01:32:09.030Z,44.61
2022-08-10T01:34:59.814Z,44.15
2022-08-10T01:37:30.795Z,44.14
2022-08-10T01:40:00.409Z,44.24
2022-08-10T01:42:31.453Z,44.15
2022-08-10T01:45:03.317Z,44.34
2022-08-10T01:47:54.322Z,44.13
2022-08-10T01:50:35.847Z,43.69
2022-08-10T01:53:26.397Z,43.99
2022-08-10T01:55:55.178Z,45.01
2022-08-10T01:58:23.245Z,44.48
2022-08-10T02:00:52.119Z,44.58
2022-08-10T02:03:20.907Z,44.27
2022-08-10T02:05:53.653Z,44.59
2022-08-10T02:08:23.486Z,45.02
2022-08-10T02:10:51.955Z,44.86
2022-08-10T02:13:19.831Z,45.11
2022-08-10T02:16:01.809Z,45.35
2022-08-10T02:18:30.631Z,44.50
2022-08-10T02:21:00.115Z,44.69
2022-08-10T02:23:32.588Z,45.83
2022-08-10T02:26:01.474Z,45.38
2022-08-10T02:28:32.062Z,44.92
2022-08-10T02:31:12.126Z,44.71
2022-08-10T02:33:56.207Z,45.24
2022-08-10T02:36:26.717Z,45.21
2022-08-10T02:38:59.626Z,45.95
2022-08-10T02:45:14.588Z,45.87
2022-08-10T02:45:21.965Z,45.97
2022-08-10T02:47:57.566Z,46.68
2022-08-10T02:50:37.052Z,46.43
2022-08-10T02:53:56.291Z,46.61
2022-08-10T02:56:18.928Z,46.27
2022-08-10T02:58:52.397Z,46.54
2022-08-10T03:01:23.966Z,46.52
2022-08-10T03:04:06.442Z,46.23
2022-08-10T03:06:37.880Z,47.43
2022-08-10T03:09:07.940Z,47.25
2022-08-10T03:12:35.733Z,47.60
2022-08-10T03:14:33.228Z,47.18
2022-08-10T03:17:01.902Z,46.79
2022-08-10T03:20:34.987Z,47.28
2022-08-10T03:22:18.017Z,46.83
2022-08-10T03:24:45.840Z,46.80
2022-08-10T03:27:14.669Z,46.72
2022-08-10T03:30:32.404Z,46.97
2022-08-10T03:32:30.994Z,46.89
2022-08-10T03:34:59.244Z,46.75
2022-08-10T03:37:27.643Z,46.79
2022-08-10T03:39:55.738Z,46.99
2022-08-10T03:42:24.427Z,47.44
2022-08-10T03:44:52.877Z,47.91
2022-08-10T03:47:21.667Z,47.00
2022-08-10T03:49:49.741Z,46.92
2022-08-10T03:52:18.258Z,47.46
2022-08-10T03:54:45.969Z,47.92
2022-08-10T03:57:13.791Z,47.84
2022-08-10T03:59:41.326Z,47.77
2022-08-10T04:02:44.992Z,47.72
2022-08-10T04:04:56.787Z,48.25
2022-08-10T04:07:24.192Z,48.45
2022-08-10T04:09:55.998Z,48.79
2022-08-10T04:12:24.603Z,48.71
2022-08-10T04:14:53.342Z,49.24
2022-08-10T04:17:57.119Z,49.00
2022-08-10T04:20:35.253Z,49.46
2022-08-10T04:23:14.421Z,48.34
2022-08-10T04:25:41.912Z,48.51
2022-08-10T04:28:10.283Z,48.68
2022-08-10T04:30:38.001Z,48.47
2022-08-10T04:33:07.068Z,48.41
2022-08-10T04:35:34.838Z,48.66
2022-08-10T04:38:03.372Z,48.91
2022-08-10T04:40:31.752Z,48.93
2022-08-10T04:43:02.401Z,48.49
2022-08-10T04:45:49.357Z,48.66
2022-08-10T04:48:43.482Z,49.41
2022-08-10T04:51:19.125Z,49.53
2022-08-10T04:54:04.517Z,50.40
2022-08-10T04:56:35.954Z,50.66
2022-08-10T04:59:05.237Z,50.26
2022-08-10T05:02:30.402Z,50.23
2022-08-10T05:04:37.518Z,50.30
2022-08-10T05:07:11.149Z,49.69
2022-08-10T05:10:04.531Z,49.69
2022-08-10T05:12:36.847Z,49.24
2022-08-10T05:15:12.945Z,49.33
2022-08-10T05:18:03.187Z,49.15
2022-08-10T05:20:29.282Z,49.82
2022-08-10T05:22:56.749Z,49.86
2022-08-10T05:25:23.974Z,49.89
2022-08-10T05:27:52.499Z,49.47
2022-08-10T05:30:21.963Z,49.11
2022-08-10T05:32:57.508Z,49.56
2022-08-10T05:35:28.404Z,49.48
2022-08-10T05:38:09.952Z,49.66
2022-08-10T05:40:46.883Z,49.64
2022-08-10T05:43:17.320Z,49.48
2022-08-10T05:46:19.329Z,49.09
2022-08-10T05:48:54.830Z,48.95
2022-08-10T05:51:21.259Z,49.62
2022-08-10T05:54:02.288Z,49.81
2022-08-10T05:56:57.207Z,50.14
2022-08-10T06:00:29.305Z,50.46
2022-08-10T06:02:33.532Z,50.03
2022-08-10T06:05:01.075Z,49.93
2022-08-10T06:07:30.490Z,49.65
2022-08-10T06:10:00.182Z,48.47
2022-08-10T06:12:30.551Z,48.77
2022-08-10T06:15:05.907Z,48.81
2022-08-10T06:17:37.796Z,49.02
2022-08-10T06:20:05.869Z,49.39
2022-08-10T06:22:33.664Z,49.49
2022-08-10T06:25:32.387Z,49.67
2022-08-10T06:27:51.002Z,49.72
2022-08-10T06:30:21.058Z,50.20
2022-08-10T06:32:50.369Z,49.85
2022-08-10T06:35:26.187Z,50.04
2022-08-10T06:38:02.465Z,49.32
2022-08-10T06:40:34.694Z,49.10
2022-08-10T06:43:06.031Z,48.89
2022-08-10T06:45:44.225Z,48.85
2022-08-10T06:50:57.981Z,49.03
2022-08-10T06:53:52.767Z,48.77
2022-08-10T06:56:36.249Z,48.26
2022-08-10T06:59:22.020Z,48.58
2022-08-10T07:01:54.698Z,48.70
2022-08-10T07:04:42.712Z,48.37
2022-08-10T07:07:17.559Z,48.01
2022-08-10T07:09:45.432Z,47.40
2022-08-10T07:12:14.493Z,48.02
2022-08-10T07:14:44.862Z,47.78
2022-08-10T07:17:17.764Z,47.99
2022-08-10T07:20:01.424Z,47.81
2022-08-10T07:23:01.458Z,47.56
2022-08-10T07:25:24.366Z,47.13
2022-08-10T07:27:59.036Z,46.79
2022-08-10T07:30:33.376Z,45.86
2022-08-10T07:33:02.076Z,46.23
2022-08-10T07:35:36.437Z,45.70
2022-08-10T07:38:07.736Z,44.87
2022-08-10T07:40:36.307Z,44.63
2022-08-10T07:43:04.359Z,43.99
2022-08-10T07:45:33.068Z,44.31
2022-08-10T07:48:08.121Z,44.06
2022-08-10T07:50:38.081Z,43.50
2022-08-10T07:53:09.076Z,43.61
2022-08-10T07:56:04.682Z,43.03
2022-08-10T07:58:36.132Z,42.41
2022-08-10T08:01:03.541Z,42.70
2022-08-10T08:03:31.361Z,42.48
2022-08-10T08:06:05.455Z,41.83
2022-08-10T08:08:41.850Z,41.41
2022-08-10T08:11:09.463Z,41.21
2022-08-10T08:13:54.358Z,41.30
2022-08-10T08:16:23.370Z,41.15
2022-08-10T08:19:26.579Z,41.31
2022-08-10T08:24:08.454Z,40.62
2022-08-10T08:24:34.605Z,40.79
2022-08-10T08:27:03.989Z,41.44
2022-08-10T08:29:35.830Z,41.15
2022-08-10T08:32:04.836Z,40.11
2022-08-10T08:34:33.048Z,39.94
2022-08-10T08:37:01.318Z,39.79
2022-08-10T08:39:29.534Z,39.60
2022-08-10T08:42:10.062Z,40.31
2022-08-10T08:45:01.201Z,40.15
2022-08-10T08:48:03.714Z,39.91
2022-08-10T08:50:36.191Z,39.97
2022-08-10T08:53:21.929Z,39.33
2022-08-10T08:56:05.394Z,39.11
2022-08-10T08:59:22.181Z,38.93
2022-08-10T09:02:31.495Z,38.84
2022-08-10T09:05:14.456Z,38.89
2022-08-10T09:08:03.469Z,38.63
2022-08-10T09:10:39.790Z,38.63
2022-08-10T09:13:14.320Z,38.22
2022-08-10T09:16:00.648Z,38.08
2022-08-10T09:19:05.714Z,37.96
2022-08-10T09:22:12.423Z,38.18
2022-08-10T09:24:46.859Z,37.98
2022-08-10T09:27:22.032Z,37.91
2022-08-10T09:29:58.266Z,37.44
2022-08-10T09:36:16.201Z,36.84
2022-08-10T09:36:25.389Z,36.74
2022-08-10T09:38:57.870Z,36.04
2022-08-10T09:41:35.966Z,36.68
2022-08-10T09:44:03.261Z,36.58
2022-08-10T09:46:45.669Z,36.79
2022-08-10T09:49:54.825Z,36.49
2022-08-10T09:52:32.188Z,35.51
2022-08-10T09:55:24.640Z,35.38
2022-08-10T09:58:14.986Z,35.08
2022-08-10T10:00:47.754Z,35.22
2022-08-10T10:03:17.287Z,35.18
2022-08-10T10:06:33.194Z,34.32
2022-08-10T10:09:10.898Z,34.68
2022-08-10T10:11:50.287Z,34.28
2022-08-10T10:15:07.344Z,33.75
2022-08-10T10:18:01.577Z,33.86
2022-08-10T10:20:41.514Z,33.56
2022-08-10T10:23:08.791Z,33.19
2022-08-10T10:25:51.333Z,32.84
2022-08-10T10:31:59.007Z,32.90
2022-08-10T10:34:57.257Z,32.77
2022-08-10T10:38:01.670Z,32.72
2022-08-10T10:40:14.926Z,32.29
2022-08-10T10:42:45.250Z,31.83
2022-08-10T10:45:29.126Z,31.21
2022-08-10T10:48:07.583Z,31.12
2022-08-10T10:50:41.529Z,30.71
2022-08-10T10:53:33.936Z,30.42
2022-08-10T10:56:15.916Z,30.92
2022-08-10T10:58:55.972Z,30.60
2022-08-10T11:01:23.464Z,30.74
2022-08-10T11:04:02.380Z,30.45
2022-08-10T11:06:50.347Z,30.09
2022-08-10T11:10:05.243Z,27.96
2022-08-10T11:12:16.857Z,27.59
2022-08-10T11:14:58.940Z,27.70
2022-08-10T11:17:34.770Z,27.26
2022-08-10T11:20:13.198Z,27.13
2022-08-10T11:22:58.821Z,26.73
2022-08-10T11:25:31.699Z,26.04
2022-08-10T11:28:18.302Z,25.75
2022-08-10T11:31:10.282Z,25.77
2022-08-10T11:34:11.706Z,25.46
2022-08-10T11:36:48.180Z,25.46
2022-08-10T11:39:37.404Z,26.06
2022-08-10T11:42:35.740Z,25.99
2022-08-10T11:45:08.920Z,25.77
2022-08-10T11:47:42.159Z,25.80
2022-08-10T11:50:28.667Z,26.05
2022-08-10T11:53:27.455Z,25.59
2022-08-10T11:56:09.683Z,25.92
2022-08-10T11:59:00.573Z,25.45
2022-08-10T12:01:31.000Z,25.66
2022-08-10T12:04:00.310Z,25.57
2022-08-10T12:06:53.669Z,24.91
2022-08-10T12:10:10.242Z,24.79
2022-08-10T12:12:05.552Z,24.90
2022-08-10T12:14:36.106Z,24.36
2022-08-10T12:17:16.200Z,24.61
2022-08-10T12:20:01.456Z,24.81
2022-08-10T12:22:57.210Z,24.45
2022-08-10T12:25:58.026Z,24.46
2022-08-10T12:28:51.297Z,24.35
2022-08-10T12:31:31.576Z,24.21
2022-08-10T12:34:36.272Z,24.18
2022-08-10T12:37:09.633Z,24.67
2022-08-10T12:39:48.902Z,24.40
2022-08-10T12:42:37.000Z,24.38
2022-08-10T12:45:21.039Z,24.30
2022-08-10T12:48:09.251Z,24.84
2022-08-10T12:50:43.301Z,24.65
2022-08-10T12:53:35.146Z,24.41
2022-08-10T12:56:03.917Z,24.19
2022-08-10T12:58:57.672Z,24.27
2022-08-10T13:01:19.488Z,24.62
2022-08-10T13:04:20.413Z,24.38
2022-08-10T13:06:41.600Z,24.38
2022-08-10T13:09:08.942Z,24.21
2022-08-10T13:12:36.295Z,24.80
2022-08-10T13:14:45.304Z,24.08
2022-08-10T13:17:14.828Z,23.83
2022-08-10T13:19:55.385Z,23.92
2022-08-10T13:22:24.386Z,23.99
2022-08-10T13:24:55.411Z,24.29
2022-08-10T13:28:00.863Z,24.18
2022-08-10T13:30:14.581Z,23.99
2022-08-10T13:32:48.418Z,24.00
2022-08-10T13:35:19.698Z,23.87
2022-08-10T13:37:47.752Z,23.84
2022-08-10T13:40:18.327Z,23.30
2022-08-10T13:42:47.495Z,22.95
2022-08-10T13:45:18.251Z,23.21
2022-08-10T13:47:50.185Z,22.94
2022-08-10T13:50:33.351Z,22.66
2022-08-10T13:53:15.471Z,22.24
2022-08-10T13:55:54.865Z,22.59
2022-08-10T13:58:26.064Z,22.61
2022-08-10T14:00:54.544Z,22.77
2022-08-10T14:03:23.347Z,22.51
2022-08-10T14:05:55.880Z,21.95
2022-08-10T14:08:33.326Z,22.22
2022-08-10T14:11:11.039Z,22.06
2022-08-10T14:13:45.823Z,22.01
2022-08-10T14:16:13.637Z,22.00
2022-08-10T14:18:44.761Z,21.55
2022-08-10T14:21:13.367Z,21.71
2022-08-10T14:23:51.986Z,21.64
2022-08-10T14:26:31.291Z,21.57
2022-08-10T14:29:05.772Z,21.58
2022-08-10T14:31:37.568Z,21.10
2022-08-10T14:34:08.952Z,20.65
2022-08-10T14:36:47.740Z,20.75
2022-08-10T14:39:22.727Z,21.00
2022-08-10T14:42:01.329Z,21.63
2022-08-10T14:44:45.478Z,21.99
2022-08-10T14:47:51.325Z,21.72
2022-08-10T14:50:04.121Z,21.67
2022-08-10T14:52:44.453Z,21.65
2022-08-10T14:55:19.016Z,21.31
2022-08-10T14:58:19.677Z,21.05
2022-08-10T15:00:42.920Z,20.48
2022-08-10T15:04:01.767Z,21.33
2022-08-10T15:06:17.994Z,21.07
2022-08-10T15:08:47.475Z,21.08
2022-08-10T15:12:14.225Z,21.50
2022-08-10T15:14:41.103Z,21.46
2022-08-10T15:16:57.753Z,21.04
2022-08-10T15:20:03.064Z,21.39
2022-08-10T15:22:37.266Z,21.77
2022-08-10T15:25:18.865Z,21.83
2022-08-10T15:27:54.565Z,22.14
2022-08-10T15:30:31.776Z,21.71
2022-08-10T15:33:20.873Z,21.82
2022-08-10T15:36:28.282Z,21.28
2022-08-10T15:39:01.949Z,22.17
2022-08-10T15:42:00.483Z,22.09
2022-08-10T15:44:37.318Z,21.81
2022-08-10T15:47:08.761Z,22.17
2022-08-10T15:49:45.202Z,22.11
2022-08-10T15:52:39.879Z,21.74
2022-08-10T15:55:44.440Z,22.41
2022-08-10T15:58:38.767Z,22.19
2022-08-10T16:02:04.383Z,21.93
2022-08-10T16:04:13.043Z,22.28
2022-08-10T16:06:44.245Z,22.54
2022-08-10T16:10:23.796Z,22.60
2022-08-10T16:12:29.968Z,22.45
2022-08-10T16:15:03.264Z,22.47
2022-08-10T16:17:32.907Z,22.43
2022-08-10T16:20:52.510Z,22.28
2022-08-10T16:23:31.520Z,21.88
2022-08-10T16:26:13.473Z,22.22
2022-08-10T16:28:47.844Z,22.09
2022-08-10T16:31:21.593Z,22.32
2022-08-10T16:33:53.081Z,22.25
2022-08-10T16:36:23.511Z,22.22
2022-08-10T16:38:51.908Z,22.31
2022-08-10T16:42:00.170Z,21.84
2022-08-10T16:44:10.899Z,22.15
2022-08-10T16:46:42.650Z,22.24
2022-08-10T16:49:11.359Z,22.14
2022-08-10T16:51:39.947Z,22.15
2022-08-10T16:54:07.782Z,21.57
2022-08-10T16:56:47.679Z,21.90
2022-08-10T16:59:20.615Z,21.91
2022-08-10T17:01:51.348Z,21.76
2022-08-10T17:04:22.747Z,22.01
2022-08-10T17:06:56.799Z,22.12
2022-08-10T17:09:34.230Z,22.14
2022-08-10T17:12:10.658Z,22.34
2022-08-10T17:14:40.773Z,22.26
2022-08-10T17:17:40.362Z,22.53
2022-08-10T17:20:30.925Z,22.39
2022-08-10T17:23:01.717Z,22.59
2022-08-10T17:25:48.322Z,22.93
2022-08-10T17:28:35.104Z,22.70
2022-08-10T17:31:53.773Z,22.67
2022-08-10T17:34:27.962Z,22.67
2022-08-10T17:37:02.440Z,22.19
2022-08-10T17:39:37.295Z,22.51
2022-08-10T17:42:08.835Z,22.57
2022-08-10T17:44:38.039Z,22.35
2022-08-10T17:47:10.959Z,22.27
2022-08-10T17:49:40.421Z,22.70
2022-08-10T17:52:09.473Z,22.73
2022-08-10T17:54:44.332Z,22.60
2022-08-10T17:57:16.012Z,22.70
2022-08-10T17:59:43.637Z,22.86
2022-08-10T18:02:13.997Z,22.91
2022-08-10T18:04:47.871Z,23.16
2022-08-10T18:07:15.350Z,23.66
2022-08-10T18:09:47.678Z,23.42
2022-08-10T18:12:19.961Z,23.35
2022-08-10T18:14:50.899Z,23.37
2022-08-10T18:17:23.856Z,23.22
2022-08-10T18:19:54.358Z,23.49
2022-08-10T18:22:22.781Z,23.50
2022-08-10T18:24:51.293Z,23.71
2022-08-10T18:27:19.315Z,23.55
2022-08-10T18:29:51.600Z,23.61
2022-08-10T18:32:20.830Z,23.82
2022-08-10T18:34:50.309Z,23.84
2022-08-10T18:37:21.312Z,23.79
2022-08-10T18:39:52.900Z,24.05
2022-08-10T18:42:43.298Z,23.93
2022-08-10T18:45:14.395Z,23.79
2022-08-10T18:47:59.272Z,23.74
2022-08-10T18:50:43.845Z,23.90
2022-08-10T18:53:18.529Z,24.28
2022-08-10T18:56:08.709Z,24.37
2022-08-10T18:59:08.830Z,24.76
2022-08-10T19:01:45.158Z,24.50
2022-08-10T19:04:43.431Z,24.65
2022-08-10T19:07:47.839Z,24.73
2022-08-10T19:10:40.240Z,24.48
2022-08-10T19:13:17.114Z,24.71
2022-08-10T19:15:55.294Z,24.68
2022-08-10T19:18:34.557Z,25.03
2022-08-10T19:21:11.802Z,24.64
2022-08-10T19:23:51.825Z,24.78
2022-08-10T19:26:44.446Z,24.69
2022-08-10T19:29:16.362Z,24.89
2022-08-10T19:32:21.141Z,24.57
2022-08-10T19:35:03.871Z,24.80
2022-08-10T19:37:44.048Z,25.16
2022-08-10T19:40:44.849Z,24.47
2022-08-10T19:43:13.876Z,24.56
2022-08-10T19:46:06.676Z,24.63
2022-08-10T19:48:58.490Z,24.44
2022-08-10T19:51:54.419Z,24.56
2022-08-10T19:54:26.589Z,24.67
2022-08-10T19:57:16.460Z,24.79
2022-08-10T20:00:15.661Z,24.89
2022-08-10T20:03:11.750Z,24.83
2022-08-10T20:06:19.099Z,24.84
2022-08-10T20:08:40.071Z,24.94
2022-08-10T20:11:45.737Z,24.70
2022-08-10T20:14:52.783Z,24.64
2022-08-10T20:17:52.332Z,24.62
2022-08-10T20:20:48.117Z,24.90
2022-08-10T20:23:19.090Z,24.83
2022-08-10T20:25:52.204Z,24.83
2022-08-10T20:28:24.264Z,24.93
2022-08-10T20:31:08.566Z,25.01
2022-08-10T20:33:49.489Z,25.15
2022-08-10T20:36:25.612Z,25.04
2022-08-10T20:39:12.268Z,25.25
2022-08-10T20:42:09.519Z,25.38
2022-08-10T20:44:58.939Z,25.45
2022-08-10T20:47:44.231Z,25.48
2022-08-10T20:50:34.100Z,25.21
2022-08-10T20:53:06.731Z,25.64
2022-08-10T20:55:54.505Z,25.26
2022-08-10T20:58:36.994Z,25.67
2022-08-10T21:01:17.062Z,25.46
2022-08-10T21:04:18.774Z,25.63
2022-08-10T21:06:52.157Z,25.93
2022-08-10T21:09:28.292Z,25.75
2022-08-10T21:12:16.549Z,26.13
2022-08-10T21:15:08.121Z,26.06
2022-08-10T21:18:20.826Z,26.20
2022-08-10T21:21:00.987Z,26.36
2022-08-10T21:23:30.549Z,26.46
2022-08-10T21:26:08.664Z,26.35
2022-08-10T21:28:51.545Z,26.41
2022-08-10T21:31:41.775Z,26.56
2022-08-10T21:37:46.344Z,26.60
2022-08-10T21:40:34.519Z,26.76
2022-08-10T21:43:49.883Z,27.04
2022-08-10T21:47:03.226Z,27.43
2022-08-10T21:50:03.980Z,27.66
2022-08-10T21:53:04.172Z,27.73
2022-08-10T21:56:11.475Z,27.84
2022-08-10T21:59:08.168Z,27.79
2022-08-10T22:02:15.966Z,27.71
2022-08-10T22:05:01.913Z,27.51
2022-08-10T22:07:48.400Z,28.14
2022-08-10T22:10:37.815Z,27.89
2022-08-10T22:13:25.231Z,27.80
2022-08-10T22:16:15.844Z,27.87
2022-08-10T22:19:04.301Z,27.76
2022-08-10T22:22:04.514Z,27.61
2022-08-10T22:25:17.052Z,27.57
2022-08-10T22:28:03.640Z,27.56
2022-08-10T22:31:22.706Z,27.26
2022-08-10T22:31:28.764Z,26.46
2022-08-10T22:34:15.231Z,27.37
2022-08-10T22:37:19.623Z,27.71
2022-08-10T22:40:22.961Z,27.51
2022-08-10T22:43:12.129Z,27.18
2022-08-10T22:46:11.784Z,27.35
2022-08-10T22:49:01.709Z,27.88
2022-08-10T22:51:37.947Z,27.82
2022-08-10T22:54:51.533Z,27.57
2022-08-10T22:57:38.077Z,27.86
2022-08-10T23:00:17.152Z,28.17
2022-08-10T23:03:00.658Z,27.88
2022-08-10T23:05:42.473Z,28.44
2022-08-10T23:08:42.227Z,28.11
2022-08-10T23:11:13.704Z,27.85
2022-08-10T23:13:44.522Z,27.93
2022-08-10T23:16:37.147Z,28.85
2022-08-10T23:19:13.805Z,29.77
2022-08-10T23:22:04.225Z,30.21
2022-08-10T23:24:38.519Z,30.64
2022-08-10T23:27:13.203Z,30.58
2022-08-10T23:30:10.182Z,31.33
2022-08-10T23:32:44.477Z,32.13
2022-08-10T23:36:29.822Z,32.19
2022-08-10T23:38:05.970Z,32.41
2022-08-10T23:40:34.031Z,32.10
2022-08-10T23:43:01.803Z,31.71
2022-08-10T23:45:30.245Z,32.28
2022-08-10T23:48:20.059Z,32.61
2022-08-10T23:50:58.155Z,32.63
2022-08-10T23:53:30.855Z,32.63
2022-08-10T23:56:06.742Z,32.88
2022-08-10T23:58:38.025Z,32.59
